If you wish to contribute or participate in the discussions about articles you are invited to join SKYbrary as a registered user

 Actions

Piloto Civil N. Fernández Airport

From SKYbrary Wiki

SAWG
Airport
ICAO: SAWG – IATA: RGL
Summary
Name Piloto Civil N. Fernández Airport
Region South America and Caribbean
Territory Argentina AR.gif
Location Rio Gallegos, Santa Cruz
Serving Rio Gallegos
Elevation 18.593 m
61 ft
61 ft18.593 m
Type medium airport
Coordinates 51° 36' 31.95" S, 69° 18' 45.49" W
Runways
Designator Length Width Surface ROPS
7/25 3549 m11,643.701 ft
45 m147.638 ft
CON yes/yes


METAR
Observation SAWG 170100Z 23007KT CAVOK 07/02 Q1002
Station Rio Gallegos Aerodrome
Date/Time 17 September 2019 01:00:00
Wind direction 230°
Wind speed 07 kts
Lowest cloud amount clouds and visibility OK
Temperature 7°C
Dew point 2°C
Humidity 70%
QNH 1002 hPa
Weather condition n/a

Airport 2.5km1.35 nm
2,500 m
8,202.1 ft
west of Rio Gallegos, Santa Cruz Province, Argentina

Climatology

Cold semi-arid climate (Köppen climate classification BSk).

Maps

Terrain

Loading map...

Airport Layout

Loading map...


Accidents & Serious Incidents at or in vicinity of SAWG

None on SKYbrary